Seymour Johnson Air Force Base
KGSB : now visible

Airfield :











YOU CAN JOIN US ON...

 
LOGIN :

Register | Disclaimer

   EN    FR    IT 

 









Legend :    VFR   Marginal VFR   IFR   Intensive IFR   Very Intensive IFR
Visi :
Ceiling :
>= 8 km
>= 3000ft
5 to 8 km
1000 to 3000 ft
1500m to 5 km
500 to 1000 ft
800 to 1500m
200 to 500 ft
< 800m
< 200 ft
Symbols :   Thunderstorms  Fog  Heavy snow  Heavy precipitations  Wind > 20 kt






- Airport Elevation : 109 ft


KGSB - Seymour Johnson Air Force Base

CURRENT METAR :
  • 201556Z AUTO 08008KT 10SM FEW065 25/19 A3022 RMK AO2 SLP236 T02540190 $

EXPIRED METARs :
  • 201456Z AUTO 09005KT 10SM CLR 23/19 A3022 RMK AO2 SLP236 T02280189 50004 $
  • 201356Z 07005KT 10SM SCT006 BKN040 20/18 A3022 RMK AO2A SLP236 T01970180 $

TAF AMD TAF KGSB
Valid from the 20 at 14:00 until the 21 at 18:00 UTC


201400Z 2014/2118 02003KT 9999 SCT006 BKN040 QNH3022INS
BECMG 2014/2015 07006KT 9999 SCT040 QNH3022INS
BECMG 2107/2108 08004KT 4800 BR BKN005 QNH3017INS
BECMG 2113/2114 05004KT 9999 NSW BKN040 QNH3025INS TX27/2020Z TN16/2110Z
KZDC FIR / North America



MET'MAP, your aeronautical weather chart ! - Copyright ORBIFLY December 2007 - Disclaimer

ORBIFLY MET'MAP TEAM :

Programming & Development : Alexandra Zaïnal
Concept & original design : Baudouin d'Aumeries
Assistance for programming : Marc-Olivier Méhu
Technical & hardware support : Manuel Goepfert

Contact : metmap@orbifly.com




SOURCES & CREDITS :

   NOAA       Earth
Advisory